Aviation Digital Data Service (ADDS)

Output produced by METARs form (1200 UTC 16 July 2019)
found at http://www.aviationweather.gov/metar/data/
 
OTBD 161130Z 32014KT 290V350 CAVOK 44/13 Q0994 NOSIG
TAF OTBD 161108Z 1612/1718 33014KT CAVOK 
     BECMG 1709/1711 01019KT
       
OTBH 161055Z 33016G26KT 9000 HZ CLR 42/08 A2941 RMK SLP960 WND DATA ESTMD ALSTG/SLP ESTMD
TAF OTBH 160800Z 1608/1714 32015G25KT 8000 HZ SKC QNH2944INS 
     BECMG 1615/1616 35009KT 9000 HZ SKC QNH2948INS 
     BECMG 1617/1618 VRB06KT 9000 HZ SKC QNH2949INS 
     BECMG 1623/1624 32012G18KT 9000 HZ SKC QNH2946INS 
     BECMG 1704/1705 35020G30KT 8000 HZ SKC QNH2945INS 
     TEMPO 1707/1712 35025G35KT 6000 DU TX44/1612Z TN31/1703Z